sensor_id;sensor_type;location;lat;lon;timestamp;temperature;humidity
59881;DHT22;45751;51.380;10.326;2023-07-02T00:00:05;15.30;99.90
59881;DHT22;45751;51.380;10.326;2023-07-02T00:02:36;15.30;99.90
59881;DHT22;45751;51.380;10.326;2023-07-02T00:05:05;15.20;99.90
59881;DHT22;45751;51.380;10.326;2023-07-02T00:07:32;15.20;99.90
59881;DHT22;45751;51.380;10.326;2023-07-02T00:10:01;15.20;99.90
59881;DHT22;45751;51.380;10.326;2023-07-02T00:12:28;15.20;99.90
59881;DHT22;45751;51.380;10.326;2023-07-02T00:14:55;15.10;99.90
59881;DHT22;45751;51.380;10.326;2023-07-02T00:17:22;15.20;99.90
59881;DHT22;45751;51.380;10.326;2023-07-02T00:19:49;15.20;99.90
59881;DHT22;45751;51.380;10.326;2023-07-02T00:22:19;15.10;99.90
59881;DHT22;45751;51.380;10.326;2023-07-02T00:24:46;15.20;99.90
59881;DHT22;45751;51.380;10.326;2023-07-02T00:27:13;15.10;99.90
59881;DHT22;45751;51.380;10.326;2023-07-02T00:29:40;15.10;99.90
59881;DHT22;45751;51.380;10.326;2023-07-02T00:32:07;15.10;99.90
59881;DHT22;45751;51.380;10.326;2023-07-02T00:34:34;15.10;99.90
59881;DHT22;45751;51.380;10.326;2023-07-02T00:37:01;15.10;99.90
59881;DHT22;45751;51.380;10.326;2023-07-02T00:39:28;15.10;99.90
59881;DHT22;45751;51.380;10.326;2023-07-02T00:42:03;15.10;99.90
59881;DHT22;45751;51.380;10.326;2023-07-02T00:44:30;15.10;99.90
59881;DHT22;45751;51.380;10.326;2023-07-02T00:46:58;15.00;99.90
59881;DHT22;45751;51.380;10.326;2023-07-02T00:49:25;15.00;99.90
59881;DHT22;45751;51.380;10.326;2023-07-02T00:51:53;15.00;99.90
59881;DHT22;45751;51.380;10.326;2023-07-02T00:54:20;15.00;99.90
59881;DHT22;45751;51.380;10.326;2023-07-02T00:56:47;15.10;99.90
59881;DHT22;45751;51.380;10.326;2023-07-02T00:59:14;15.00;99.90
59881;DHT22;45751;51.380;10.326;2023-07-02T01:01:42;15.00;99.90
59881;DHT22;45751;51.380;10.326;2023-07-02T01:04:09;15.00;99.90
59881;DHT22;45751;51.380;10.326;2023-07-02T01:06:37;15.00;99.90
59881;DHT22;45751;51.380;10.326;2023-07-02T01:09:10;15.00;99.90
59881;DHT22;45751;51.380;10.326;2023-07-02T01:11:48;15.00;99.90
59881;DHT22;45751;51.380;10.326;2023-07-02T01:14:24;15.00;99.90
59881;DHT22;45751;51.380;10.326;2023-07-02T01:16:53;15.00;99.90
59881;DHT22;45751;51.380;10.326;2023-07-02T01:19:43;15.00;99.90
59881;DHT22;45751;51.380;10.326;2023-07-02T01:22:11;15.00;99.90
59881;DHT22;45751;51.380;10.326;2023-07-02T01:24:39;15.00;99.90
59881;DHT22;45751;51.380;10.326;2023-07-02T01:27:07;15.00;99.90
59881;DHT22;45751;51.380;10.326;2023-07-02T01:29:34;14.90;99.90
59881;DHT22;45751;51.380;10.326;2023-07-02T01:32:04;14.90;99.90
59881;DHT22;45751;51.380;10.326;2023-07-02T01:34:32;15.00;99.90
59881;DHT22;45751;51.380;10.326;2023-07-02T01:36:59;14.90;99.90
59881;DHT22;45751;51.380;10.326;2023-07-02T01:39:26;15.00;99.90
59881;DHT22;45751;51.380;10.326;2023-07-02T01:41:54;14.90;99.90
59881;DHT22;45751;51.380;10.326;2023-07-02T01:44:22;15.00;99.90
59881;DHT22;45751;51.380;10.326;2023-07-02T01:46:49;14.90;99.90
59881;DHT22;45751;51.380;10.326;2023-07-02T01:49:17;14.90;99.90
59881;DHT22;45751;51.380;10.326;2023-07-02T01:54:18;14.90;99.90
59881;DHT22;45751;51.380;10.326;2023-07-02T01:56:46;14.90;99.90
59881;DHT22;45751;51.380;10.326;2023-07-02T01:59:13;15.00;99.90
59881;DHT22;45751;51.380;10.326;2023-07-02T02:01:40;15.00;99.90
59881;DHT22;45751;51.380;10.326;2023-07-02T02:04:08;14.90;99.90
59881;DHT22;45751;51.380;10.326;2023-07-02T02:06:37;14.90;99.90
59881;DHT22;45751;51.380;10.326;2023-07-02T02:09:05;14.90;99.90
59881;DHT22;45751;51.380;10.326;2023-07-02T02:11:33;14.90;99.90
59881;DHT22;45751;51.380;10.326;2023-07-02T02:14:00;14.90;99.90
59881;DHT22;45751;51.380;10.326;2023-07-02T02:16:30;14.90;99.90
59881;DHT22;45751;51.380;10.326;2023-07-02T02:18:57;14.90;99.90
59881;DHT22;45751;51.380;10.326;2023-07-02T02:21:24;14.90;99.90
59881;DHT22;45751;51.380;10.326;2023-07-02T02:23:51;14.90;99.90
59881;DHT22;45751;51.380;10.326;2023-07-02T02:26:18;14.90;99.90
59881;DHT22;45751;51.380;10.326;2023-07-02T02:28:48;14.90;99.90
59881;DHT22;45751;51.380;10.326;2023-07-02T02:31:16;14.80;99.90
59881;DHT22;45751;51.380;10.326;2023-07-02T02:33:44;14.90;99.90
59881;DHT22;45751;51.380;10.326;2023-07-02T02:36:11;14.80;99.90
59881;DHT22;45751;51.380;10.326;2023-07-02T02:38:38;14.80;99.90
59881;DHT22;45751;51.380;10.326;2023-07-02T02:41:06;14.80;99.90
59881;DHT22;45751;51.380;10.326;2023-07-02T02:43:42;14.80;99.90
59881;DHT22;45751;51.380;10.326;2023-07-02T02:46:12;14.80;99.90
59881;DHT22;45751;51.380;10.326;2023-07-02T02:48:39;14.80;99.90
59881;DHT22;45751;51.380;10.326;2023-07-02T02:51:06;14.80;99.90
59881;DHT22;45751;51.380;10.326;2023-07-02T02:53:33;14.80;99.90
59881;DHT22;45751;51.380;10.326;2023-07-02T02:56:00;14.80;99.90
59881;DHT22;45751;51.380;10.326;2023-07-02T02:58:27;14.80;99.90
59881;DHT22;45751;51.380;10.326;2023-07-02T03:00:54;14.80;99.90
59881;DHT22;45751;51.380;10.326;2023-07-02T03:03:22;14.70;99.90
59881;DHT22;45751;51.380;10.326;2023-07-02T03:05:51;14.80;99.90
59881;DHT22;45751;51.380;10.326;2023-07-02T03:08:18;14.80;99.90
59881;DHT22;45751;51.380;10.326;2023-07-02T03:10:45;14.80;99.90
59881;DHT22;45751;51.380;10.326;2023-07-02T03:13:14;14.80;99.90
59881;DHT22;45751;51.380;10.326;2023-07-02T03:15:41;14.80;99.90
59881;DHT22;45751;51.380;10.326;2023-07-02T03:18:09;14.80;99.90
59881;DHT22;45751;51.380;10.326;2023-07-02T03:20:36;14.80;99.90
59881;DHT22;45751;51.380;10.326;2023-07-02T03:23:03;14.80;99.90
59881;DHT22;45751;51.380;10.326;2023-07-02T03:25:30;14.70;99.90
59881;DHT22;45751;51.380;10.326;2023-07-02T03:27:57;14.70;99.90
59881;DHT22;45751;51.380;10.326;2023-07-02T03:30:24;14.70;99.90
59881;DHT22;45751;51.380;10.326;2023-07-02T03:32:51;14.70;99.90
59881;DHT22;45751;51.380;10.326;2023-07-02T03:35:19;14.70;99.90
59881;DHT22;45751;51.380;10.326;2023-07-02T03:37:46;14.60;99.90
59881;DHT22;45751;51.380;10.326;2023-07-02T03:40:13;14.70;99.90
59881;DHT22;45751;51.380;10.326;2023-07-02T03:42:40;14.60;99.90
59881;DHT22;45751;51.380;10.326;2023-07-02T03:45:07;14.60;99.90
59881;DHT22;45751;51.380;10.326;2023-07-02T03:47:34;14.60;99.90
59881;DHT22;45751;51.380;10.326;2023-07-02T03:50:01;14.60;99.90
59881;DHT22;45751;51.380;10.326;2023-07-02T03:52:28;14.60;99.90
59881;DHT22;45751;51.380;10.326;2023-07-02T03:54:55;14.60;99.90
59881;DHT22;45751;51.380;10.326;2023-07-02T03:57:22;14.60;99.90
59881;DHT22;45751;51.380;10.326;2023-07-02T03:59:49;14.60;99.90
59881;DHT22;45751;51.380;10.326;2023-07-02T04:02:16;14.60;99.90
59881;DHT22;45751;51.380;10.326;2023-07-02T04:04:43;14.60;99.90
59881;DHT22;45751;51.380;10.326;2023-07-02T04:07:10;14.60;99.90
59881;DHT22;45751;51.380;10.326;2023-07-02T04:09:37;14.60;99.90
59881;DHT22;45751;51.380;10.326;2023-07-02T04:12:04;14.60;99.90
59881;DHT22;45751;51.380;10.326;2023-07-02T04:14:31;14.60;99.90
59881;DHT22;45751;51.380;10.326;2023-07-02T04:16:57;14.50;99.90
59881;DHT22;45751;51.380;10.326;2023-07-02T04:19:24;14.50;99.90
59881;DHT22;45751;51.380;10.326;2023-07-02T04:21:52;14.50;99.90
59881;DHT22;45751;51.380;10.326;2023-07-02T04:24:18;14.50;99.90
59881;DHT22;45751;51.380;10.326;2023-07-02T04:26:46;14.50;99.90
59881;DHT22;45751;51.380;10.326;2023-07-02T04:29:33;14.50;99.90
59881;DHT22;45751;51.380;10.326;2023-07-02T04:32:00;14.60;99.90
59881;DHT22;45751;51.380;10.326;2023-07-02T04:34:27;14.50;99.90
59881;DHT22;45751;51.380;10.326;2023-07-02T04:36:54;14.60;99.90
59881;DHT22;45751;51.380;10.326;2023-07-02T04:39:21;14.50;99.90
59881;DHT22;45751;51.380;10.326;2023-07-02T04:41:47;14.60;99.90
59881;DHT22;45751;51.380;10.326;2023-07-02T04:44:19;14.60;99.90
59881;DHT22;45751;51.380;10.326;2023-07-02T04:46:48;14.60;99.90
59881;DHT22;45751;51.380;10.326;2023-07-02T04:49:15;14.60;99.90
59881;DHT22;45751;51.380;10.326;2023-07-02T04:51:42;14.60;99.90
59881;DHT22;45751;51.380;10.326;2023-07-02T04:54:09;14.60;99.90
59881;DHT22;45751;51.380;10.326;2023-07-02T04:56:36;14.70;99.90
59881;DHT22;45751;51.380;10.326;2023-07-02T04:59:03;14.70;99.90
59881;DHT22;45751;51.380;10.326;2023-07-02T05:01:30;14.70;99.90
59881;DHT22;45751;51.380;10.326;2023-07-02T05:03:57;14.70;99.90
59881;DHT22;45751;51.380;10.326;2023-07-02T05:06:24;14.70;99.90
59881;DHT22;45751;51.380;10.326;2023-07-02T05:08:51;14.70;99.90
59881;DHT22;45751;51.380;10.326;2023-07-02T05:11:19;14.70;99.90
59881;DHT22;45751;51.380;10.326;2023-07-02T05:13:46;14.70;99.90
59881;DHT22;45751;51.380;10.326;2023-07-02T05:16:14;14.70;99.90
59881;DHT22;45751;51.380;10.326;2023-07-02T05:18:41;14.70;99.90
59881;DHT22;45751;51.380;10.326;2023-07-02T05:21:08;14.70;99.90
59881;DHT22;45751;51.380;10.326;2023-07-02T05:23:35;14.70;99.90
59881;DHT22;45751;51.380;10.326;2023-07-02T05:26:02;14.70;99.90
59881;DHT22;45751;51.380;10.326;2023-07-02T05:28:29;14.80;99.90
59881;DHT22;45751;51.380;10.326;2023-07-02T05:30:56;14.80;99.90
59881;DHT22;45751;51.380;10.326;2023-07-02T05:33:23;14.80;99.90
59881;DHT22;45751;51.380;10.326;2023-07-02T05:35:50;14.80;99.90
59881;DHT22;45751;51.380;10.326;2023-07-02T05:38:18;14.80;99.90
59881;DHT22;45751;51.380;10.326;2023-07-02T05:40:45;14.90;99.90
59881;DHT22;45751;51.380;10.326;2023-07-02T05:43:13;14.90;99.90
59881;DHT22;45751;51.380;10.326;2023-07-02T05:45:40;15.00;99.90
59881;DHT22;45751;51.380;10.326;2023-07-02T05:48:07;14.90;99.90
59881;DHT22;45751;51.380;10.326;2023-07-02T05:50:34;15.00;99.90
59881;DHT22;45751;51.380;10.326;2023-07-02T05:53:01;15.00;99.90
59881;DHT22;45751;51.380;10.326;2023-07-02T05:55:28;15.10;99.90
59881;DHT22;45751;51.380;10.326;2023-07-02T05:57:54;15.10;99.90
59881;DHT22;45751;51.380;10.326;2023-07-02T06:00:24;15.10;99.90
59881;DHT22;45751;51.380;10.326;2023-07-02T06:02:51;15.10;99.90
59881;DHT22;45751;51.380;10.326;2023-07-02T06:05:18;15.10;99.90
59881;DHT22;45751;51.380;10.326;2023-07-02T06:07:45;15.10;99.90
59881;DHT22;45751;51.380;10.326;2023-07-02T06:10:12;15.10;99.90
59881;DHT22;45751;51.380;10.326;2023-07-02T06:12:39;15.10;99.90
59881;DHT22;45751;51.380;10.326;2023-07-02T06:15:06;15.10;99.90
59881;DHT22;45751;51.380;10.326;2023-07-02T06:17:33;15.20;99.90
59881;DHT22;45751;51.380;10.326;2023-07-02T06:20:06;15.20;99.90
59881;DHT22;45751;51.380;10.326;2023-07-02T06:22:33;15.20;99.90
59881;DHT22;45751;51.380;10.326;2023-07-02T06:25:00;15.20;99.90
59881;DHT22;45751;51.380;10.326;2023-07-02T06:27:31;15.30;99.90
59881;DHT22;45751;51.380;10.326;2023-07-02T06:29:58;15.30;99.90
59881;DHT22;45751;51.380;10.326;2023-07-02T06:32:25;15.40;99.90
59881;DHT22;45751;51.380;10.326;2023-07-02T06:34:52;15.50;99.90
59881;DHT22;45751;51.380;10.326;2023-07-02T06:37:19;15.40;99.90
59881;DHT22;45751;51.380;10.326;2023-07-02T06:39:46;15.50;99.90
59881;DHT22;45751;51.380;10.326;2023-07-02T06:42:13;15.50;99.90
59881;DHT22;45751;51.380;10.326;2023-07-02T06:44:40;15.50;99.90
59881;DHT22;45751;51.380;10.326;2023-07-02T06:47:07;15.50;99.90
59881;DHT22;45751;51.380;10.326;2023-07-02T06:49:35;15.50;99.90
59881;DHT22;45751;51.380;10.326;2023-07-02T06:52:03;15.50;99.90
59881;DHT22;45751;51.380;10.326;2023-07-02T06:54:30;15.50;99.90
59881;DHT22;45751;51.380;10.326;2023-07-02T06:56:56;15.50;99.90
59881;DHT22;45751;51.380;10.326;2023-07-02T06:59:24;15.50;99.90
59881;DHT22;45751;51.380;10.326;2023-07-02T07:01:51;15.50;99.90
59881;DHT22;45751;51.380;10.326;2023-07-02T07:04:18;15.60;99.90
59881;DHT22;45751;51.380;10.326;2023-07-02T07:06:45;15.60;99.90
59881;DHT22;45751;51.380;10.326;2023-07-02T07:09:12;15.60;99.90
59881;DHT22;45751;51.380;10.326;2023-07-02T07:11:39;15.60;99.90
59881;DHT22;45751;51.380;10.326;2023-07-02T07:14:06;15.60;99.90
59881;DHT22;45751;51.380;10.326;2023-07-02T07:16:33;15.70;99.90
59881;DHT22;45751;51.380;10.326;2023-07-02T07:19:01;15.70;99.90
59881;DHT22;45751;51.380;10.326;2023-07-02T07:21:27;15.70;99.90
59881;DHT22;45751;51.380;10.326;2023-07-02T07:23:54;15.70;99.90
59881;DHT22;45751;51.380;10.326;2023-07-02T07:26:21;15.70;99.90
59881;DHT22;45751;51.380;10.326;2023-07-02T07:28:49;15.70;99.90
59881;DHT22;45751;51.380;10.326;2023-07-02T07:31:16;15.80;99.90
59881;DHT22;45751;51.380;10.326;2023-07-02T07:33:43;15.80;99.90
59881;DHT22;45751;51.380;10.326;2023-07-02T07:36:11;15.80;99.90
59881;DHT22;45751;51.380;10.326;2023-07-02T07:38:37;15.90;99.90
59881;DHT22;45751;51.380;10.326;2023-07-02T07:41:04;15.90;99.90
59881;DHT22;45751;51.380;10.326;2023-07-02T07:43:31;15.90;99.90
59881;DHT22;45751;51.380;10.326;2023-07-02T07:45:58;15.90;99.90
59881;DHT22;45751;51.380;10.326;2023-07-02T07:48:26;16.00;99.90
59881;DHT22;45751;51.380;10.326;2023-07-02T07:50:53;16.00;99.90
59881;DHT22;45751;51.380;10.326;2023-07-02T07:53:20;16.00;99.90
59881;DHT22;45751;51.380;10.326;2023-07-02T07:55:47;16.10;99.90
59881;DHT22;45751;51.380;10.326;2023-07-02T07:58:14;16.10;99.90
59881;DHT22;45751;51.380;10.326;2023-07-02T08:00:41;16.20;99.90
59881;DHT22;45751;51.380;10.326;2023-07-02T08:03:10;16.20;99.90
59881;DHT22;45751;51.380;10.326;2023-07-02T08:05:37;16.20;99.90
59881;DHT22;45751;51.380;10.326;2023-07-02T08:08:04;16.20;99.90
59881;DHT22;45751;51.380;10.326;2023-07-02T08:10:30;16.20;99.90
59881;DHT22;45751;51.380;10.326;2023-07-02T08:12:57;16.10;99.60
59881;DHT22;45751;51.380;10.326;2023-07-02T08:15:24;16.10;99.80
59881;DHT22;45751;51.380;10.326;2023-07-02T08:17:51;16.00;99.90
59881;DHT22;45751;51.380;10.326;2023-07-02T08:20:21;16.00;99.90
59881;DHT22;45751;51.380;10.326;2023-07-02T08:22:48;15.90;99.90
59881;DHT22;45751;51.380;10.326;2023-07-02T08:25:16;15.80;99.90
59881;DHT22;45751;51.380;10.326;2023-07-02T08:27:44;15.60;99.90
59881;DHT22;45751;51.380;10.326;2023-07-02T08:30:11;15.50;99.90
59881;DHT22;45751;51.380;10.326;2023-07-02T08:32:38;15.40;99.90
59881;DHT22;45751;51.380;10.326;2023-07-02T08:35:05;15.30;99.90
59881;DHT22;45751;51.380;10.326;2023-07-02T08:37:32;15.20;99.90
59881;DHT22;45751;51.380;10.326;2023-07-02T08:39:59;15.20;99.90
59881;DHT22;45751;51.380;10.326;2023-07-02T08:42:26;15.10;99.90
59881;DHT22;45751;51.380;10.326;2023-07-02T08:44:57;15.10;99.90
59881;DHT22;45751;51.380;10.326;2023-07-02T08:47:25;15.20;99.90
59881;DHT22;45751;51.380;10.326;2023-07-02T08:49:52;15.20;99.90
59881;DHT22;45751;51.380;10.326;2023-07-02T08:52:20;15.30;99.90
59881;DHT22;45751;51.380;10.326;2023-07-02T08:54:47;15.30;99.90
59881;DHT22;45751;51.380;10.326;2023-07-02T08:57:14;15.40;99.40
59881;DHT22;45751;51.380;10.326;2023-07-02T08:59:41;15.50;97.00
59881;DHT22;45751;51.380;10.326;2023-07-02T09:02:08;15.50;96.40
59881;DHT22;45751;51.380;10.326;2023-07-02T09:04:35;15.60;95.90
59881;DHT22;45751;51.380;10.326;2023-07-02T09:07:07;15.60;96.00
59881;DHT22;45751;51.380;10.326;2023-07-02T09:09:50;15.70;96.20
59881;DHT22;45751;51.380;10.326;2023-07-02T09:12:27;15.70;96.30
59881;DHT22;45751;51.380;10.326;2023-07-02T09:14:59;15.80;95.10
59881;DHT22;45751;51.380;10.326;2023-07-02T09:17:31;15.90;95.20
59881;DHT22;45751;51.380;10.326;2023-07-02T09:19:59;16.00;96.00
59881;DHT22;45751;51.380;10.326;2023-07-02T09:22:31;16.00;96.00
59881;DHT22;45751;51.380;10.326;2023-07-02T09:24:59;16.10;96.90
59881;DHT22;45751;51.380;10.326;2023-07-02T09:27:40;16.20;96.60
59881;DHT22;45751;51.380;10.326;2023-07-02T09:30:13;16.30;95.70
59881;DHT22;45751;51.380;10.326;2023-07-02T09:32:43;16.30;95.40
59881;DHT22;45751;51.380;10.326;2023-07-02T09:35:12;16.40;95.50
59881;DHT22;45751;51.380;10.326;2023-07-02T09:37:41;16.50;95.30
59881;DHT22;45751;51.380;10.326;2023-07-02T09:40:09;16.50;94.40
59881;DHT22;45751;51.380;10.326;2023-07-02T09:42:38;16.60;93.40
59881;DHT22;45751;51.380;10.326;2023-07-02T09:45:08;16.70;92.90
59881;DHT22;45751;51.380;10.326;2023-07-02T09:47:42;16.70;93.20
59881;DHT22;45751;51.380;10.326;2023-07-02T09:50:13;16.70;92.70
59881;DHT22;45751;51.380;10.326;2023-07-02T09:52:42;16.80;92.40
59881;DHT22;45751;51.380;10.326;2023-07-02T09:55:12;16.80;90.70
59881;DHT22;45751;51.380;10.326;2023-07-02T09:57:39;16.80;90.40
59881;DHT22;45751;51.380;10.326;2023-07-02T10:00:07;16.80;89.50
59881;DHT22;45751;51.380;10.326;2023-07-02T10:02:36;16.90;90.20
59881;DHT22;45751;51.380;10.326;2023-07-02T10:05:03;16.90;91.40
59881;DHT22;45751;51.380;10.326;2023-07-02T10:07:32;17.00;88.20
59881;DHT22;45751;51.380;10.326;2023-07-02T10:10:00;17.10;85.30
59881;DHT22;45751;51.380;10.326;2023-07-02T10:12:28;17.10;87.50
59881;DHT22;45751;51.380;10.326;2023-07-02T10:14:57;17.10;86.30
59881;DHT22;45751;51.380;10.326;2023-07-02T10:17:32;17.20;87.60
59881;DHT22;45751;51.380;10.326;2023-07-02T10:20:05;17.30;84.00
59881;DHT22;45751;51.380;10.326;2023-07-02T10:22:45;17.30;81.50
59881;DHT22;45751;51.380;10.326;2023-07-02T10:25:23;17.30;81.30
59881;DHT22;45751;51.380;10.326;2023-07-02T10:27:50;17.30;82.70
59881;DHT22;45751;51.380;10.326;2023-07-02T10:30:17;17.40;83.30
59881;DHT22;45751;51.380;10.326;2023-07-02T10:32:44;17.50;82.60
59881;DHT22;45751;51.380;10.326;2023-07-02T10:35:18;17.50;79.50
59881;DHT22;45751;51.380;10.326;2023-07-02T10:37:45;17.60;79.60
59881;DHT22;45751;51.380;10.326;2023-07-02T10:40:12;17.70;78.40
59881;DHT22;45751;51.380;10.326;2023-07-02T10:42:51;17.70;78.10
59881;DHT22;45751;51.380;10.326;2023-07-02T10:45:19;17.70;78.00
59881;DHT22;45751;51.380;10.326;2023-07-02T10:47:46;17.80;77.40
59881;DHT22;45751;51.380;10.326;2023-07-02T10:50:18;17.80;75.40
59881;DHT22;45751;51.380;10.326;2023-07-02T10:52:46;17.80;77.60
59881;DHT22;45751;51.380;10.326;2023-07-02T10:55:17;17.80;75.90
59881;DHT22;45751;51.380;10.326;2023-07-02T10:57:45;17.80;72.00
59881;DHT22;45751;51.380;10.326;2023-07-02T11:00:12;17.80;71.00
59881;DHT22;45751;51.380;10.326;2023-07-02T11:02:39;17.80;72.20
59881;DHT22;45751;51.380;10.326;2023-07-02T11:05:09;17.70;74.30
59881;DHT22;45751;51.380;10.326;2023-07-02T11:07:40;17.80;71.90
59881;DHT22;45751;51.380;10.326;2023-07-02T11:10:08;17.80;71.00
59881;DHT22;45751;51.380;10.326;2023-07-02T11:12:35;17.80;70.70
59881;DHT22;45751;51.380;10.326;2023-07-02T11:15:16;17.90;69.90
59881;DHT22;45751;51.380;10.326;2023-07-02T11:17:44;18.00;68.90
59881;DHT22;45751;51.380;10.326;2023-07-02T11:20:13;18.10;68.40
59881;DHT22;45751;51.380;10.326;2023-07-02T11:22:40;18.00;67.70
59881;DHT22;45751;51.380;10.326;2023-07-02T11:25:19;18.10;65.40
59881;DHT22;45751;51.380;10.326;2023-07-02T11:27:47;18.10;65.70
59881;DHT22;45751;51.380;10.326;2023-07-02T11:30:14;18.10;64.00
59881;DHT22;45751;51.380;10.326;2023-07-02T11:32:51;18.20;63.90
59881;DHT22;45751;51.380;10.326;2023-07-02T11:35:20;18.20;63.70
59881;DHT22;45751;51.380;10.326;2023-07-02T11:37:48;18.10;63.80
59881;DHT22;45751;51.380;10.326;2023-07-02T11:40:17;18.10;62.40
59881;DHT22;45751;51.380;10.326;2023-07-02T11:42:45;18.20;64.80
59881;DHT22;45751;51.380;10.326;2023-07-02T11:45:11;18.30;63.50
59881;DHT22;45751;51.380;10.326;2023-07-02T11:47:39;18.30;62.70
59881;DHT22;45751;51.380;10.326;2023-07-02T11:50:06;18.40;62.20
59881;DHT22;45751;51.380;10.326;2023-07-02T11:52:50;18.40;60.80
59881;DHT22;45751;51.380;10.326;2023-07-02T11:55:17;18.50;61.90
59881;DHT22;45751;51.380;10.326;2023-07-02T11:57:44;18.60;61.50
59881;DHT22;45751;51.380;10.326;2023-07-02T12:00:13;18.70;63.20
59881;DHT22;45751;51.380;10.326;2023-07-02T12:02:42;18.80;59.90
59881;DHT22;45751;51.380;10.326;2023-07-02T12:05:09;18.80;59.10
59881;DHT22;45751;51.380;10.326;2023-07-02T12:07:39;18.80;60.40
59881;DHT22;45751;51.380;10.326;2023-07-02T12:10:07;18.80;59.60
59881;DHT22;45751;51.380;10.326;2023-07-02T12:12:34;18.80;57.70
59881;DHT22;45751;51.380;10.326;2023-07-02T12:15:01;18.70;58.70
59881;DHT22;45751;51.380;10.326;2023-07-02T12:17:29;18.70;59.30
59881;DHT22;45751;51.380;10.326;2023-07-02T12:19:56;18.70;58.40
59881;DHT22;45751;51.380;10.326;2023-07-02T12:22:23;18.70;58.70
59881;DHT22;45751;51.380;10.326;2023-07-02T12:24:50;18.60;58.80
59881;DHT22;45751;51.380;10.326;2023-07-02T12:27:20;18.60;59.60
59881;DHT22;45751;51.380;10.326;2023-07-02T12:29:47;18.60;59.60
59881;DHT22;45751;51.380;10.326;2023-07-02T12:32:15;18.70;60.10
59881;DHT22;45751;51.380;10.326;2023-07-02T12:34:42;18.70;58.70
59881;DHT22;45751;51.380;10.326;2023-07-02T12:37:09;18.80;59.10
59881;DHT22;45751;51.380;10.326;2023-07-02T12:39:36;18.80;59.00
59881;DHT22;45751;51.380;10.326;2023-07-02T12:42:03;18.80;58.20
59881;DHT22;45751;51.380;10.326;2023-07-02T12:44:30;18.80;59.10
59881;DHT22;45751;51.380;10.326;2023-07-02T12:46:57;18.80;59.50
59881;DHT22;45751;51.380;10.326;2023-07-02T12:49:24;18.90;58.60
59881;DHT22;45751;51.380;10.326;2023-07-02T12:51:51;18.90;59.10
59881;DHT22;45751;51.380;10.326;2023-07-02T12:54:18;18.90;58.70
59881;DHT22;45751;51.380;10.326;2023-07-02T12:56:45;18.90;57.60
59881;DHT22;45751;51.380;10.326;2023-07-02T12:59:14;18.80;58.40
59881;DHT22;45751;51.380;10.326;2023-07-02T13:01:41;18.80;59.70
59881;DHT22;45751;51.380;10.326;2023-07-02T13:04:08;18.80;58.30
59881;DHT22;45751;51.380;10.326;2023-07-02T13:06:35;18.80;61.00
59881;DHT22;45751;51.380;10.326;2023-07-02T13:09:07;18.80;61.80
59881;DHT22;45751;51.380;10.326;2023-07-02T13:11:35;18.80;61.10
59881;DHT22;45751;51.380;10.326;2023-07-02T13:14:02;18.90;62.80
59881;DHT22;45751;51.380;10.326;2023-07-02T13:16:29;19.10;62.90
59881;DHT22;45751;51.380;10.326;2023-07-02T13:18:56;19.20;61.50
59881;DHT22;45751;51.380;10.326;2023-07-02T13:21:23;19.30;60.70
59881;DHT22;45751;51.380;10.326;2023-07-02T13:23:50;19.30;61.40
59881;DHT22;45751;51.380;10.326;2023-07-02T13:26:17;19.50;60.70
59881;DHT22;45751;51.380;10.326;2023-07-02T13:28:44;19.60;60.10
59881;DHT22;45751;51.380;10.326;2023-07-02T13:31:14;19.70;59.20
59881;DHT22;45751;51.380;10.326;2023-07-02T13:33:42;19.70;59.20
59881;DHT22;45751;51.380;10.326;2023-07-02T13:36:09;19.70;58.90
59881;DHT22;45751;51.380;10.326;2023-07-02T13:38:36;19.60;57.30
59881;DHT22;45751;51.380;10.326;2023-07-02T13:41:04;19.60;58.60
59881;DHT22;45751;51.380;10.326;2023-07-02T13:43:31;19.60;58.40
59881;DHT22;45751;51.380;10.326;2023-07-02T13:46:02;19.70;58.80
59881;DHT22;45751;51.380;10.326;2023-07-02T13:48:29;19.80;59.80
59881;DHT22;45751;51.380;10.326;2023-07-02T13:50:56;20.00;58.60
59881;DHT22;45751;51.380;10.326;2023-07-02T13:53:23;20.10;57.50
59881;DHT22;45751;51.380;10.326;2023-07-02T13:55:49;20.30;58.20
59881;DHT22;45751;51.380;10.326;2023-07-02T13:58:17;20.40;59.40
59881;DHT22;45751;51.380;10.326;2023-07-02T14:00:56;20.60;54.80
59881;DHT22;45751;51.380;10.326;2023-07-02T14:03:22;20.70;54.30
59881;DHT22;45751;51.380;10.326;2023-07-02T14:05:50;20.80;53.60
59881;DHT22;45751;51.380;10.326;2023-07-02T14:08:18;20.80;53.90
59881;DHT22;45751;51.380;10.326;2023-07-02T14:10:45;20.80;53.70
59881;DHT22;45751;51.380;10.326;2023-07-02T14:13:11;20.80;52.30
59881;DHT22;45751;51.380;10.326;2023-07-02T14:15:39;20.70;53.70
59881;DHT22;45751;51.380;10.326;2023-07-02T14:18:05;20.60;53.60
59881;DHT22;45751;51.380;10.326;2023-07-02T14:20:32;20.60;55.00
59881;DHT22;45751;51.380;10.326;2023-07-02T14:22:59;20.50;56.70
59881;DHT22;45751;51.380;10.326;2023-07-02T14:25:26;20.60;56.50
59881;DHT22;45751;51.380;10.326;2023-07-02T14:28:13;20.60;55.20
59881;DHT22;45751;51.380;10.326;2023-07-02T14:30:40;20.60;55.50
59881;DHT22;45751;51.380;10.326;2023-07-02T14:33:09;20.60;56.30
59881;DHT22;45751;51.380;10.326;2023-07-02T14:35:36;20.50;56.70
59881;DHT22;45751;51.380;10.326;2023-07-02T14:38:03;20.40;55.80
59881;DHT22;45751;51.380;10.326;2023-07-02T14:40:32;20.30;55.70
59881;DHT22;45751;51.380;10.326;2023-07-02T14:42:59;20.20;56.00
59881;DHT22;45751;51.380;10.326;2023-07-02T14:45:26;20.30;56.70
59881;DHT22;45751;51.380;10.326;2023-07-02T14:47:53;20.30;57.20
59881;DHT22;45751;51.380;10.326;2023-07-02T14:50:27;20.50;57.00
59881;DHT22;45751;51.380;10.326;2023-07-02T14:52:54;20.70;56.60
59881;DHT22;45751;51.380;10.326;2023-07-02T14:55:21;20.90;54.00
59881;DHT22;45751;51.380;10.326;2023-07-02T14:57:48;21.10;54.50
59881;DHT22;45751;51.380;10.326;2023-07-02T15:00:15;21.20;54.00
59881;DHT22;45751;51.380;10.326;2023-07-02T15:02:42;21.20;53.50
59881;DHT22;45751;51.380;10.326;2023-07-02T15:05:09;21.20;53.40
59881;DHT22;45751;51.380;10.326;2023-07-02T15:07:36;21.10;53.70
59881;DHT22;45751;51.380;10.326;2023-07-02T15:10:03;21.10;54.80
59881;DHT22;45751;51.380;10.326;2023-07-02T15:12:30;21.20;54.30
59881;DHT22;45751;51.380;10.326;2023-07-02T15:14:57;21.30;54.60
59881;DHT22;45751;51.380;10.326;2023-07-02T15:17:24;21.20;51.70
59881;DHT22;45751;51.380;10.326;2023-07-02T15:19:51;21.10;52.30
59881;DHT22;45751;51.380;10.326;2023-07-02T15:22:18;21.10;52.70